createdAt,value
2023-05-21T00:00:12.605Z,101291.81
2023-05-21T00:10:34.388Z,101275.56
2023-05-21T00:20:56.235Z,101267.16
2023-05-21T00:31:19.198Z,101258.50
2023-05-21T00:41:43.044Z,101253.19
2023-05-21T00:52:05.522Z,101242.31
2023-05-21T01:02:27.463Z,101249.47
2023-05-21T01:12:50.956Z,101241.53
2023-05-21T01:23:13.338Z,101233.91
2023-05-21T01:33:45.447Z,101224.28
2023-05-21T01:44:09.142Z,101221.69
2023-05-21T01:54:30.988Z,101217.44
2023-05-21T02:04:52.817Z,101210.56
2023-05-21T02:15:14.808Z,101209.69
2023-05-21T02:25:37.117Z,101208.94
2023-05-21T02:35:59.081Z,101209.06
2023-05-21T02:46:21.078Z,101209.88
2023-05-21T02:56:43.030Z,101206.38
2023-05-21T03:07:05.704Z,101206.56
2023-05-21T03:17:27.468Z,101197.16
2023-05-21T03:27:49.361Z,101199.63
2023-05-21T03:38:11.194Z,101188.41
2023-05-21T03:48:32.977Z,101183.38
2023-05-21T03:58:54.794Z,101188.44
2023-05-21T04:09:16.879Z,101201.50
2023-05-21T04:19:38.932Z,101199.78
2023-05-21T04:30:00.871Z,101195.44
2023-05-21T04:40:24.644Z,101201.50
2023-05-21T04:50:46.773Z,101207.53
2023-05-21T05:01:09.083Z,101199.72
2023-05-21T05:11:31.072Z,101211.81
2023-05-21T05:21:52.958Z,101208.34
2023-05-21T05:32:14.874Z,101197.69
2023-05-21T05:42:36.775Z,101189.88
2023-05-21T05:52:58.690Z,101174.97
2023-05-21T06:03:20.625Z,101184.44
2023-05-21T06:13:22.218Z,101187.72
2023-05-21T06:23:23.732Z,101188.38
2023-05-21T06:33:27.278Z,101175.09
2023-05-21T06:43:28.924Z,101167.00
2023-05-21T06:53:30.420Z,101164.09
2023-05-21T07:03:32.244Z,101148.91
2023-05-21T07:13:35.796Z,101151.69
2023-05-21T07:31:08.427Z,101175.31
2023-05-21T07:41:28.493Z,101163.25
2023-05-21T07:52:08.613Z,101157.94
2023-05-21T08:02:49.646Z,101149.28
2023-05-21T08:13:30.302Z,101159.03
2023-05-21T08:24:10.628Z,101162.84
2023-05-21T08:34:53.232Z,101165.06
2023-05-21T08:45:40.562Z,101183.66
2023-05-21T08:56:21.404Z,101169.78
2023-05-21T09:07:03.215Z,101164.09
2023-05-21T09:17:48.150Z,101150.41
2023-05-21T09:28:29.553Z,101144.28
2023-05-21T09:39:16.296Z,101144.38
2023-05-21T09:50:03.415Z,101140.34
2023-05-21T10:00:45.632Z,101128.63
2023-05-21T10:11:27.474Z,101115.00
2023-05-21T10:22:09.307Z,101122.94
2023-05-21T10:32:50.377Z,101094.66
2023-05-21T10:44:02.486Z,101082.56
2023-05-21T10:54:48.748Z,101084.19
2023-05-21T11:05:09.156Z,101072.16
2023-05-21T11:15:29.695Z,101066.59
2023-05-21T11:26:02.267Z,101075.97
2023-05-21T11:36:22.819Z,101065.25
2023-05-21T11:46:43.565Z,101066.06
2023-05-21T11:57:07.987Z,101066.84
2023-05-21T12:07:31.639Z,101060.22
2023-05-21T12:17:53.288Z,101054.31
2023-05-21T12:28:13.818Z,101047.16
2023-05-21T12:38:34.596Z,101030.41
2023-05-21T12:48:58.196Z,101036.72
2023-05-21T12:59:18.376Z,101018.41
2023-05-21T13:09:38.620Z,101015.50
2023-05-21T13:20:20.575Z,100998.84
2023-05-21T13:30:40.963Z,100991.47
2023-05-21T13:41:21.562Z,101005.31
2023-05-21T13:51:42.178Z,100993.47
2023-05-21T14:02:02.428Z,100984.97
2023-05-21T14:12:22.821Z,100990.16
2023-05-21T14:22:43.360Z,100993.56
2023-05-21T14:33:03.593Z,100999.50
2023-05-21T14:43:24.058Z,100986.81
2023-05-21T14:53:44.024Z,100994.31
2023-05-21T15:04:24.530Z,100992.16
2023-05-21T15:15:06.323Z,100979.66
2023-05-21T15:25:26.389Z,100969.25
2023-05-21T15:35:46.736Z,100958.78
2023-05-21T15:46:07.348Z,100948.44
2023-05-21T15:56:27.887Z,100932.19
2023-05-21T16:06:48.585Z,100947.50
2023-05-21T16:17:09.058Z,100952.47
2023-05-21T16:27:29.758Z,100947.19
2023-05-21T16:37:53.377Z,100942.53
2023-05-21T16:48:35.525Z,100926.91
2023-05-21T16:58:57.387Z,100911.50
2023-05-21T17:09:18.827Z,100924.84
2023-05-21T17:19:39.429Z,100938.47
2023-05-21T17:29:59.772Z,100944.19
2023-05-21T17:40:20.378Z,100948.34
2023-05-21T17:51:01.092Z,100951.25
2023-05-21T18:01:41.728Z,100953.31
2023-05-21T18:12:22.565Z,100945.72
2023-05-21T18:33:43.398Z,100941.78
2023-05-21T18:44:24.323Z,100939.50
2023-05-21T18:55:06.632Z,100926.78
2023-05-21T19:05:47.285Z,100937.38
2023-05-21T19:16:27.627Z,100953.78
2023-05-21T19:27:08.258Z,100948.09
2023-05-21T19:37:48.666Z,100959.56
2023-05-21T19:48:29.456Z,100952.47
2023-05-21T19:59:11.480Z,100963.22
2023-05-21T20:09:52.340Z,100959.25
2023-05-21T20:20:34.552Z,100965.03
2023-05-21T20:31:15.177Z,100970.06
2023-05-21T20:41:56.198Z,100965.22
2023-05-21T20:52:36.811Z,100969.41
2023-05-21T21:03:18.440Z,100973.22
2023-05-21T21:13:59.369Z,100993.97
2023-05-21T21:24:40.035Z,101011.19
2023-05-21T21:35:20.888Z,101000.91
2023-05-21T21:46:01.458Z,101000.97
2023-05-21T21:56:42.469Z,100981.81
2023-05-21T22:07:23.677Z,100980.81
2023-05-21T22:18:04.903Z,100971.22
2023-05-21T22:28:45.056Z,100951.84
2023-05-21T22:39:25.743Z,100943.75
2023-05-21T22:50:08.112Z,100968.94
2023-05-21T23:00:48.577Z,100985.25
2023-05-21T23:11:29.368Z,100981.59
2023-05-21T23:22:09.830Z,100957.91
2023-05-21T23:32:50.851Z,100952.38
2023-05-21T23:43:31.607Z,100939.44
2023-05-21T23:54:12.128Z,100933.97
